createdAt,value
2019-02-21T00:00:31.387Z,10.68
2019-02-21T00:01:38.750Z,10.98
2019-02-21T00:02:43.433Z,9.70
2019-02-21T00:03:48.993Z,10.48
2019-02-21T00:04:53.788Z,9.33
2019-02-21T00:05:59.121Z,9.95
2019-02-21T00:07:04.267Z,10.00
2019-02-21T00:08:09.239Z,9.43
2019-02-21T00:09:14.224Z,9.93
2019-02-21T00:10:19.187Z,9.93
2019-02-21T00:11:24.516Z,10.25
2019-02-21T00:12:29.519Z,9.45
2019-02-21T00:13:34.839Z,9.80
2019-02-21T00:14:40.136Z,9.13
2019-02-21T00:15:45.232Z,9.50
2019-02-21T00:16:50.315Z,9.98
2019-02-21T00:17:55.561Z,9.58
2019-02-21T00:19:00.320Z,10.40
2019-02-21T00:20:05.588Z,10.13
2019-02-21T00:21:10.638Z,9.28
2019-02-21T00:22:15.641Z,10.30
2019-02-21T00:23:20.396Z,10.38
2019-02-21T00:24:25.658Z,10.03
2019-02-21T00:25:30.646Z,10.08
2019-02-21T00:26:35.929Z,9.63
2019-02-21T00:27:40.658Z,10.72
2019-02-21T00:28:45.648Z,10.08
2019-02-21T00:29:50.959Z,10.20
2019-02-21T00:30:56.477Z,10.18
2019-02-21T00:32:01.596Z,9.85
2019-02-21T00:33:06.606Z,10.68
2019-02-21T00:34:11.345Z,10.28
2019-02-21T00:35:16.310Z,9.55
2019-02-21T00:36:21.589Z,10.03
2019-02-21T00:37:26.616Z,10.03
2019-02-21T00:38:31.638Z,10.20
2019-02-21T00:39:36.615Z,9.73
2019-02-21T00:40:41.848Z,9.35
2019-02-21T00:41:47.123Z,10.90
2019-02-21T00:42:52.169Z,10.32
2019-02-21T00:43:57.154Z,10.18
2019-02-21T00:45:02.161Z,10.10
2019-02-21T00:46:06.833Z,9.88
2019-02-21T00:47:11.642Z,9.78
2019-02-21T00:48:16.898Z,9.83
2019-02-21T00:49:22.171Z,10.45
2019-02-21T00:50:27.174Z,9.88
2019-02-21T00:51:32.423Z,9.93
2019-02-21T00:52:37.672Z,9.93
2019-02-21T00:53:42.941Z,9.93
2019-02-21T00:54:48.246Z,10.18
2019-02-21T00:55:52.978Z,9.90
2019-02-21T00:56:57.763Z,9.53
2019-02-21T00:58:02.572Z,10.25
2019-02-21T00:59:08.162Z,9.65
2019-02-21T01:00:13.761Z,10.25
2019-02-21T01:01:20.751Z,9.98
2019-02-21T01:02:26.071Z,10.35
2019-02-21T01:03:31.652Z,10.05
2019-02-21T01:04:36.774Z,10.23
2019-02-21T01:05:42.029Z,9.88
2019-02-21T01:06:46.790Z,10.30
2019-02-21T01:07:52.093Z,10.08
2019-02-21T01:08:57.118Z,9.98
2019-02-21T01:10:02.227Z,10.35
2019-02-21T01:11:07.252Z,10.18
2019-02-21T01:12:12.309Z,9.80
2019-02-21T01:13:17.576Z,10.38
2019-02-21T01:14:22.546Z,9.98
2019-02-21T01:15:27.512Z,9.48
2019-02-21T01:16:32.793Z,9.98
2019-02-21T01:17:37.814Z,10.25
2019-02-21T01:18:43.013Z,10.23
2019-02-21T01:19:48.311Z,9.25
2019-02-21T01:20:53.254Z,9.98
2019-02-21T01:21:58.966Z,10.08
2019-02-21T01:23:03.958Z,10.32
2019-02-21T01:24:08.756Z,11.05
2019-02-21T01:25:13.480Z,10.75
2019-02-21T01:26:19.028Z,10.50
2019-02-21T01:27:24.376Z,10.80
2019-02-21T01:28:29.417Z,10.70
2019-02-21T01:29:34.105Z,11.55
2019-02-21T01:30:39.557Z,10.18
2019-02-21T01:31:45.228Z,10.08
2019-02-21T01:32:50.513Z,10.55
2019-02-21T01:33:55.582Z,11.18
2019-02-21T01:35:00.615Z,10.70
2019-02-21T01:36:05.619Z,11.40
2019-02-21T01:37:10.383Z,10.18
2019-02-21T01:38:15.681Z,11.35
2019-02-21T01:39:20.400Z,11.65
2019-02-21T01:40:25.156Z,11.28
2019-02-21T01:41:30.146Z,11.12
2019-02-21T01:42:35.442Z,10.72
2019-02-21T01:43:40.491Z,11.53
2019-02-21T01:44:45.470Z,12.10
2019-02-21T01:45:50.484Z,12.10
2019-02-21T01:46:55.793Z,11.75
2019-02-21T01:48:01.041Z,11.83
2019-02-21T01:49:06.048Z,12.95
2019-02-21T01:50:10.816Z,12.30
2019-02-21T01:51:15.792Z,12.30
2019-02-21T01:52:21.048Z,11.10
2019-02-21T01:53:26.327Z,12.50
2019-02-21T01:54:31.330Z,11.50
2019-02-21T01:55:36.648Z,11.85
2019-02-21T01:56:41.960Z,11.25
2019-02-21T01:57:47.061Z,11.40
2019-02-21T01:58:52.321Z,12.43
2019-02-21T01:59:57.574Z,12.60
2019-02-21T02:01:08.625Z,12.65
2019-02-21T02:02:09.837Z,12.55
2019-02-21T02:03:15.212Z,11.63
2019-02-21T02:04:20.450Z,11.83
2019-02-21T02:05:25.169Z,11.10
2019-02-21T02:06:30.137Z,10.32
2019-02-21T02:07:35.213Z,11.10
2019-02-21T02:08:40.227Z,12.15
2019-02-21T02:09:45.196Z,12.53
2019-02-21T02:10:49.917Z,11.35
2019-02-21T02:11:54.904Z,11.18
2019-02-21T02:13:00.211Z,12.70
2019-02-21T02:14:04.911Z,11.57
2019-02-21T02:15:10.071Z,12.37
2019-02-21T02:16:14.804Z,12.35
2019-02-21T02:17:20.243Z,11.20
2019-02-21T02:18:25.807Z,11.55
2019-02-21T02:19:30.754Z,11.50
2019-02-21T02:20:36.036Z,11.83
2019-02-21T02:21:41.078Z,12.37
2019-02-21T02:22:46.610Z,11.30
2019-02-21T02:23:51.590Z,12.10
2019-02-21T02:24:56.559Z,11.85
2019-02-21T02:26:01.498Z,11.22
2019-02-21T02:27:06.541Z,11.30
2019-02-21T02:28:11.836Z,11.70
2019-02-21T02:29:17.112Z,11.15
2019-02-21T02:30:22.175Z,12.03
2019-02-21T02:31:27.149Z,11.12
2019-02-21T02:32:32.418Z,11.75
2019-02-21T02:33:37.730Z,11.75
2019-02-21T02:34:42.491Z,11.25
2019-02-21T02:35:48.064Z,11.73
2019-02-21T02:36:53.328Z,11.55
2019-02-21T02:37:58.362Z,11.88
2019-02-21T02:39:04.301Z,10.63
2019-02-21T02:40:09.429Z,12.33
2019-02-21T02:41:14.924Z,12.23
2019-02-21T02:42:19.972Z,11.95
2019-02-21T02:43:25.586Z,12.15
2019-02-21T02:44:30.922Z,12.03
2019-02-21T02:45:36.555Z,12.25
2019-02-21T02:46:41.442Z,10.93
2019-02-21T02:47:47.028Z,12.20
2019-02-21T02:48:52.349Z,11.40
2019-02-21T02:49:57.637Z,11.43
2019-02-21T02:51:03.017Z,11.03
2019-02-21T02:52:08.108Z,11.78
2019-02-21T02:53:13.386Z,11.20
2019-02-21T02:54:18.393Z,12.10
2019-02-21T02:55:23.666Z,11.50
2019-02-21T02:56:29.097Z,11.83
2019-02-21T02:57:34.377Z,11.38
2019-02-21T02:58:39.927Z,11.60
2019-02-21T02:59:45.484Z,11.97
2019-02-21T03:00:50.467Z,11.18
2019-02-21T03:01:55.233Z,11.88
2019-02-21T03:03:00.288Z,11.53
2019-02-21T03:04:05.004Z,11.78
2019-02-21T03:05:09.719Z,12.23
2019-02-21T03:06:14.475Z,11.90
2019-02-21T03:07:19.445Z,12.63
2019-02-21T03:08:24.819Z,12.63
2019-02-21T03:09:30.104Z,12.85
2019-02-21T03:10:35.654Z,12.03
2019-02-21T03:11:40.641Z,11.28
2019-02-21T03:12:46.201Z,12.18
2019-02-21T03:13:51.214Z,11.83
2019-02-21T03:14:56.497Z,12.13
2019-02-21T03:16:01.535Z,11.85
2019-02-21T03:17:06.532Z,12.37
2019-02-21T03:18:11.820Z,12.45
2019-02-21T03:19:17.145Z,11.38
2019-02-21T03:20:22.218Z,11.88
2019-02-21T03:21:27.492Z,12.25
2019-02-21T03:22:32.477Z,12.40
2019-02-21T03:23:37.466Z,11.80
2019-02-21T03:24:42.488Z,11.57
2019-02-21T03:25:48.093Z,10.40
2019-02-21T03:26:53.396Z,12.10
2019-02-21T03:28:01.508Z,11.33
2019-02-21T03:29:06.519Z,11.28
2019-02-21T03:30:12.963Z,11.60
2019-02-21T03:31:17.780Z,11.95
2019-02-21T03:32:23.061Z,11.53
2019-02-21T03:33:28.647Z,12.85
2019-02-21T03:34:33.325Z,11.95
2019-02-21T03:35:38.584Z,11.57
2019-02-21T03:36:44.173Z,11.03
2019-02-21T03:37:48.864Z,12.28
2019-02-21T03:38:54.148Z,11.38
2019-02-21T03:39:59.287Z,11.35
2019-02-21T03:41:04.910Z,11.30
2019-02-21T03:42:09.605Z,12.33
2019-02-21T03:43:14.323Z,12.18
2019-02-21T03:44:19.086Z,12.58
2019-02-21T03:45:24.100Z,12.35
2019-02-21T03:46:29.377Z,11.97
2019-02-21T03:47:34.678Z,11.68
2019-02-21T03:48:41.034Z,12.50
2019-02-21T03:49:46.343Z,11.30
2019-02-21T03:50:51.335Z,11.80
2019-02-21T03:51:56.699Z,12.25
2019-02-21T03:53:01.815Z,12.70
2019-02-21T03:54:07.320Z,12.10
2019-02-21T03:55:12.278Z,12.93
2019-02-21T03:56:16.982Z,12.00
2019-02-21T03:57:22.264Z,12.45
2019-02-21T03:58:27.636Z,12.53
2019-02-21T03:59:32.892Z,12.90
2019-02-21T04:00:37.900Z,11.12
2019-02-21T04:01:42.897Z,12.82
2019-02-21T04:02:48.132Z,12.45
2019-02-21T04:03:53.126Z,12.50
2019-02-21T04:04:58.135Z,12.20
2019-02-21T04:06:03.557Z,12.63
2019-02-21T04:07:08.560Z,12.85
2019-02-21T04:08:13.390Z,11.93
2019-02-21T04:09:18.723Z,12.53
2019-02-21T04:10:23.710Z,11.75
2019-02-21T04:11:29.012Z,12.03
2019-02-21T04:12:33.707Z,11.08
2019-02-21T04:13:38.689Z,12.45
2019-02-21T04:14:43.683Z,12.18
2019-02-21T04:15:48.756Z,12.20
2019-02-21T04:16:53.823Z,12.93
2019-02-21T04:17:59.496Z,12.80
2019-02-21T04:19:04.937Z,12.40
2019-02-21T04:20:09.975Z,11.90
2019-02-21T04:21:15.277Z,12.53
2019-02-21T04:22:20.026Z,12.95
2019-02-21T04:23:25.237Z,12.95
2019-02-21T04:24:30.475Z,12.85
2019-02-21T04:25:35.185Z,12.10
2019-02-21T04:26:40.539Z,12.68
2019-02-21T04:27:45.867Z,12.47
2019-02-21T04:28:51.134Z,12.85
2019-02-21T04:29:56.520Z,13.75
2019-02-21T04:31:02.149Z,12.45
2019-02-21T04:32:16.645Z,12.45
2019-02-21T04:33:14.198Z,12.75
2019-02-21T04:34:19.103Z,13.15
2019-02-21T04:35:24.421Z,12.47
2019-02-21T04:36:29.682Z,12.55
2019-02-21T04:37:34.943Z,13.00
2019-02-21T04:38:40.176Z,12.98
2019-02-21T04:39:45.148Z,12.43
2019-02-21T04:40:50.177Z,12.60
2019-02-21T04:41:55.426Z,12.98
2019-02-21T04:43:00.791Z,12.63
2019-02-21T04:44:05.811Z,13.03
2019-02-21T04:45:11.013Z,12.70
2019-02-21T04:46:16.292Z,12.45
2019-02-21T04:47:21.872Z,13.03
2019-02-21T04:48:27.157Z,13.18
2019-02-21T04:49:32.430Z,13.32
2019-02-21T04:50:37.421Z,12.53
2019-02-21T04:51:42.462Z,12.53
2019-02-21T04:52:47.221Z,11.90
2019-02-21T04:53:52.256Z,12.55
2019-02-21T04:54:57.495Z,12.63
2019-02-21T04:56:02.295Z,12.63
2019-02-21T04:57:07.620Z,12.80
2019-02-21T04:58:12.614Z,13.20
2019-02-21T04:59:17.579Z,12.10
2019-02-21T05:00:22.281Z,11.93
2019-02-21T05:01:27.530Z,12.82
2019-02-21T05:02:32.503Z,12.45
2019-02-21T05:03:38.006Z,13.00
2019-02-21T05:04:43.283Z,13.95
2019-02-21T05:05:48.256Z,13.45
2019-02-21T05:06:53.334Z,12.98
2019-02-21T05:07:58.560Z,13.30
2019-02-21T05:09:07.280Z,12.93
2019-02-21T05:10:11.357Z,12.75
2019-02-21T05:11:16.660Z,13.08
2019-02-21T05:12:21.794Z,12.55
2019-02-21T05:13:26.560Z,13.03
2019-02-21T05:14:31.324Z,13.13
2019-02-21T05:15:36.307Z,13.00
2019-02-21T05:16:44.569Z,13.20
2019-02-21T05:17:48.903Z,12.25
2019-02-21T05:18:53.894Z,13.60
2019-02-21T05:19:59.292Z,13.13
2019-02-21T05:21:04.308Z,12.37
2019-02-21T05:22:09.874Z,13.18
2019-02-21T05:23:15.234Z,12.68
2019-02-21T05:24:20.279Z,12.70
2019-02-21T05:25:25.571Z,13.30
2019-02-21T05:26:35.191Z,15.10
2019-02-21T05:27:48.305Z,13.10
2019-02-21T05:28:53.638Z,12.68
2019-02-21T05:29:58.366Z,13.85
2019-02-21T05:31:07.501Z,13.35
2019-02-21T05:32:41.041Z,13.55
2019-02-21T05:33:55.888Z,12.40
2019-02-21T05:35:25.859Z,13.28
2019-02-21T05:36:55.512Z,12.13
2019-02-21T05:38:38.051Z,12.60
2019-02-21T05:40:03.112Z,12.75
2019-02-21T05:41:45.358Z,12.60
2019-02-21T05:42:55.965Z,11.83
2019-02-21T05:44:12.994Z,12.90
2019-02-21T05:45:23.983Z,13.10
2019-02-21T05:46:43.407Z,13.62
2019-02-21T05:48:05.998Z,13.22
2019-02-21T05:49:29.049Z,12.65
2019-02-21T05:50:47.983Z,12.82
2019-02-21T05:52:11.859Z,13.58
2019-02-21T05:53:28.591Z,12.90
2019-02-21T05:55:04.307Z,13.50
2019-02-21T05:56:30.553Z,13.55
2019-02-21T05:57:57.242Z,13.10
2019-02-21T05:59:15.802Z,13.35
2019-02-21T06:00:43.297Z,13.05
2019-02-21T06:02:11.290Z,12.55
2019-02-21T06:03:36.116Z,13.35
2019-02-21T06:05:15.289Z,11.65
2019-02-21T06:06:35.545Z,13.03
2019-02-21T06:07:50.958Z,13.98
2019-02-21T06:09:13.795Z,12.43
2019-02-21T06:10:30.729Z,12.28
2019-02-21T06:11:48.584Z,12.35
2019-02-21T06:13:18.622Z,12.80
2019-02-21T06:14:58.179Z,12.35
2019-02-21T06:16:22.989Z,12.20
2019-02-21T06:17:52.927Z,12.20
2019-02-21T06:19:15.720Z,12.18
2019-02-21T06:20:28.315Z,12.50
2019-02-21T06:21:54.761Z,13.60
2019-02-21T06:23:15.326Z,12.40
2019-02-21T06:24:29.588Z,12.78
2019-02-21T06:25:51.086Z,13.43
2019-02-21T06:26:57.580Z,13.05
2019-02-21T06:28:24.060Z,13.00
2019-02-21T06:29:51.217Z,13.55
2019-02-21T06:31:00.191Z,13.50
2019-02-21T06:32:13.860Z,14.20
2019-02-21T06:33:12.759Z,13.83
2019-02-21T06:34:17.571Z,14.18
2019-02-21T06:35:22.360Z,13.85
2019-02-21T06:36:27.674Z,13.62
2019-02-21T06:37:32.399Z,14.53
2019-02-21T06:38:37.404Z,14.05
2019-02-21T06:39:42.888Z,13.75
2019-02-21T06:40:48.265Z,14.68
2019-02-21T06:41:59.714Z,13.80
2019-02-21T06:43:00.385Z,13.08
2019-02-21T06:44:05.213Z,14.73
2019-02-21T06:45:10.245Z,14.73
2019-02-21T06:46:15.017Z,13.48
2019-02-21T06:47:20.097Z,14.33
2019-02-21T06:48:25.408Z,14.35
2019-02-21T06:49:32.873Z,15.65
2019-02-21T06:50:37.335Z,13.80
2019-02-21T06:51:42.333Z,15.28
2019-02-21T06:52:47.695Z,13.70
2019-02-21T06:53:53.274Z,13.93
2019-02-21T06:54:58.355Z,14.05
2019-02-21T06:56:03.648Z,14.47
2019-02-21T06:57:09.058Z,14.70
2019-02-21T06:58:14.359Z,14.25
2019-02-21T06:59:19.669Z,14.45
2019-02-21T07:00:24.874Z,14.03
2019-02-21T07:01:30.149Z,14.25
2019-02-21T07:02:34.867Z,14.50
2019-02-21T07:03:40.426Z,13.80
2019-02-21T07:04:45.809Z,13.88
2019-02-21T07:05:50.828Z,13.45
2019-02-21T07:06:56.849Z,13.53
2019-02-21T07:08:02.575Z,13.78
2019-02-21T07:09:07.281Z,13.98
2019-02-21T07:10:12.545Z,14.03
2019-02-21T07:11:18.129Z,13.88
2019-02-21T07:12:23.387Z,13.30
2019-02-21T07:13:27.855Z,12.88
2019-02-21T07:14:34.452Z,14.50
2019-02-21T07:15:39.511Z,14.23
2019-02-21T07:16:44.511Z,14.07
2019-02-21T07:17:49.873Z,14.47
2019-02-21T07:18:55.259Z,13.90
2019-02-21T07:20:00.526Z,13.75
2019-02-21T07:21:06.913Z,14.43
2019-02-21T07:22:17.870Z,14.20
2019-02-21T07:23:19.293Z,14.55
2019-02-21T07:24:24.387Z,14.55
2019-02-21T07:25:39.611Z,15.10
2019-02-21T07:26:44.627Z,14.10
2019-02-21T07:27:49.266Z,13.88
2019-02-21T07:28:54.330Z,13.83
2019-02-21T07:30:02.719Z,14.35
2019-02-21T07:31:08.347Z,14.40
2019-02-21T07:32:13.346Z,14.35
2019-02-21T07:33:27.714Z,15.13
2019-02-21T07:34:25.421Z,14.63
2019-02-21T07:35:31.395Z,15.32
2019-02-21T07:36:36.869Z,16.27
2019-02-21T07:37:42.394Z,14.85
2019-02-21T07:38:47.797Z,14.43
2019-02-21T07:39:53.041Z,16.50
2019-02-21T07:40:57.968Z,15.25
2019-02-21T07:42:03.355Z,15.48
2019-02-21T07:43:08.931Z,15.10
2019-02-21T07:44:13.676Z,15.68
2019-02-21T07:45:19.230Z,15.88
2019-02-21T07:46:24.557Z,15.53
2019-02-21T07:47:29.343Z,14.40
2019-02-21T07:48:36.393Z,15.32
2019-02-21T07:49:40.541Z,15.10
2019-02-21T07:50:45.593Z,15.58
2019-02-21T07:51:50.974Z,15.38
2019-02-21T07:53:02.338Z,15.48
2019-02-21T07:54:03.406Z,15.50
2019-02-21T07:55:10.464Z,15.88
2019-02-21T07:56:14.629Z,15.50
2019-02-21T07:57:19.623Z,15.43
2019-02-21T07:58:24.610Z,14.68
2019-02-21T07:59:29.676Z,16.12
2019-02-21T08:00:34.933Z,15.72
2019-02-21T08:01:39.631Z,16.60
2019-02-21T08:02:44.856Z,15.63
2019-02-21T08:03:49.291Z,16.65
2019-02-21T08:04:54.307Z,16.32
2019-02-21T08:05:59.606Z,16.00
2019-02-21T08:07:04.352Z,16.77
2019-02-21T08:08:09.435Z,16.25
2019-02-21T08:09:14.797Z,16.35
2019-02-21T08:10:25.764Z,16.45
2019-02-21T08:11:27.080Z,16.65
2019-02-21T08:12:32.052Z,16.60
2019-02-21T08:13:37.601Z,16.42
2019-02-21T08:14:43.441Z,16.70
2019-02-21T08:15:48.249Z,15.58
2019-02-21T08:16:55.999Z,16.27
2019-02-21T08:18:00.450Z,15.78
2019-02-21T08:19:05.155Z,16.15
2019-02-21T08:20:11.239Z,16.37
2019-02-21T08:21:16.345Z,16.42
2019-02-21T08:22:21.620Z,15.32
2019-02-21T08:23:26.626Z,15.80
2019-02-21T08:24:31.322Z,16.25
2019-02-21T08:25:36.641Z,16.90
2019-02-21T08:26:41.340Z,16.52
2019-02-21T08:27:46.611Z,15.85
2019-02-21T08:28:51.648Z,16.80
2019-02-21T08:29:56.640Z,16.67
2019-02-21T08:31:01.910Z,17.92
2019-02-21T08:32:06.889Z,17.07
2019-02-21T08:33:37.365Z,16.50
2019-02-21T08:34:48.064Z,15.90
2019-02-21T08:35:54.044Z,17.40
2019-02-21T08:36:59.822Z,16.85
2019-02-21T08:38:05.137Z,18.48
2019-02-21T08:39:10.822Z,18.00
2019-02-21T08:40:15.810Z,18.15
2019-02-21T08:41:20.800Z,18.55
2019-02-21T08:42:25.498Z,17.20
2019-02-21T08:43:30.776Z,17.60
2019-02-21T08:44:36.333Z,19.32
2019-02-21T08:45:41.302Z,17.27
2019-02-21T08:46:46.287Z,18.73
2019-02-21T08:47:50.810Z,18.02
2019-02-21T08:48:55.526Z,19.55
2019-02-21T08:50:00.776Z,18.25
2019-02-21T08:51:06.370Z,18.85
2019-02-21T08:52:11.836Z,18.27
2019-02-21T08:53:16.872Z,18.82
2019-02-21T08:54:21.977Z,19.05
2019-02-21T08:55:27.255Z,18.35
2019-02-21T08:56:31.994Z,19.45
2019-02-21T08:57:37.332Z,18.25
2019-02-21T08:58:42.288Z,18.87
2019-02-21T08:59:47.289Z,19.23
2019-02-21T09:00:54.287Z,18.62
2019-02-21T09:01:59.296Z,19.92
2019-02-21T09:03:04.257Z,19.42
2019-02-21T09:04:13.516Z,18.73
2019-02-21T09:05:16.424Z,19.62
2019-02-21T09:06:21.717Z,21.05
2019-02-21T09:07:26.698Z,20.08
2019-02-21T09:08:34.946Z,19.98
2019-02-21T09:09:37.847Z,19.85
2019-02-21T09:10:43.129Z,19.92
2019-02-21T09:11:48.107Z,20.62
2019-02-21T09:12:52.879Z,20.82
2019-02-21T09:13:58.140Z,20.35
2019-02-21T09:15:03.478Z,19.55
2019-02-21T09:16:08.465Z,19.00
2019-02-21T09:17:13.185Z,20.23
2019-02-21T09:18:18.144Z,21.62
2019-02-21T09:19:23.388Z,20.37
2019-02-21T09:20:28.352Z,20.72
2019-02-21T09:21:33.077Z,20.72
2019-02-21T09:22:38.745Z,20.97
2019-02-21T09:23:43.777Z,20.65
2019-02-21T09:24:48.743Z,19.77
2019-02-21T09:25:53.723Z,20.40
2019-02-21T09:27:00.270Z,20.20
2019-02-21T09:28:05.638Z,20.92
2019-02-21T09:29:11.222Z,20.10
2019-02-21T09:30:17.716Z,20.25
2019-02-21T09:31:22.655Z,20.68
2019-02-21T09:32:27.613Z,21.00
2019-02-21T09:33:32.899Z,19.85
2019-02-21T09:34:38.166Z,21.37
2019-02-21T09:35:43.156Z,20.40
2019-02-21T09:36:48.193Z,21.35
2019-02-21T09:37:52.940Z,21.00
2019-02-21T09:38:57.668Z,20.50
2019-02-21T09:40:02.647Z,21.65
2019-02-21T09:41:07.410Z,21.40
2019-02-21T09:42:12.729Z,21.48
2019-02-21T09:43:17.720Z,21.70
2019-02-21T09:44:22.962Z,22.25
2019-02-21T09:45:28.594Z,21.07
2019-02-21T09:46:33.078Z,21.35
2019-02-21T09:47:38.050Z,20.45
2019-02-21T09:48:42.860Z,21.00
2019-02-21T09:49:47.832Z,20.97
2019-02-21T09:50:53.403Z,21.68
2019-02-21T09:51:58.659Z,22.48
2019-02-21T09:53:03.138Z,22.13
2019-02-21T09:54:08.127Z,22.20
2019-02-21T09:55:14.397Z,22.30
2019-02-21T09:56:29.492Z,21.68
2019-02-21T09:57:25.862Z,21.62
2019-02-21T09:58:30.581Z,21.48
2019-02-21T09:59:35.860Z,21.55
2019-02-21T10:00:40.829Z,22.27
2019-02-21T10:01:45.520Z,22.87
2019-02-21T10:02:54.243Z,23.15
2019-02-21T10:03:57.508Z,22.40
2019-02-21T10:05:05.323Z,22.27
2019-02-21T10:06:09.011Z,22.77
2019-02-21T10:07:14.281Z,22.27
2019-02-21T10:08:18.734Z,22.55
2019-02-21T10:09:23.717Z,22.85
2019-02-21T10:10:29.299Z,22.52
2019-02-21T10:11:34.031Z,22.37
2019-02-21T10:12:39.573Z,23.50
2019-02-21T10:13:44.072Z,22.62
2019-02-21T10:14:49.405Z,22.27
2019-02-21T10:15:54.116Z,21.37
2019-02-21T10:16:59.489Z,22.48
2019-02-21T10:18:04.201Z,22.00
2019-02-21T10:19:09.152Z,23.55
2019-02-21T10:20:15.724Z,23.73
2019-02-21T10:21:20.720Z,23.07
2019-02-21T10:22:26.286Z,24.07
2019-02-21T10:23:31.554Z,23.40
2019-02-21T10:24:36.247Z,25.20
2019-02-21T10:25:41.530Z,24.02
2019-02-21T10:26:46.564Z,23.90
2019-02-21T10:27:51.298Z,24.82
2019-02-21T10:28:56.569Z,24.65
2019-02-21T10:30:01.903Z,24.50
2019-02-21T10:31:06.577Z,24.30
2019-02-21T10:32:12.159Z,25.12
2019-02-21T10:33:17.699Z,26.57
2019-02-21T10:34:22.861Z,25.68
2019-02-21T10:35:27.569Z,24.70
2019-02-21T10:36:32.782Z,23.92
2019-02-21T10:37:38.063Z,23.67
2019-02-21T10:38:43.619Z,24.45
2019-02-21T10:39:48.332Z,25.10
2019-02-21T10:40:53.348Z,23.92
2019-02-21T10:41:58.341Z,24.55
2019-02-21T10:43:03.318Z,24.50
2019-02-21T10:44:08.329Z,24.52
2019-02-21T10:45:15.403Z,25.20
2019-02-21T10:46:20.709Z,23.90
2019-02-21T10:47:25.955Z,23.95
2019-02-21T10:48:31.202Z,24.52
2019-02-21T10:49:35.810Z,24.67
2019-02-21T10:50:40.821Z,24.20
2019-02-21T10:51:45.819Z,24.40
2019-02-21T10:52:50.570Z,23.55
2019-02-21T10:53:55.873Z,23.70
2019-02-21T10:55:01.245Z,25.17
2019-02-21T10:56:06.223Z,25.35
2019-02-21T10:57:10.938Z,24.80
2019-02-21T10:58:16.206Z,26.02
2019-02-21T10:59:21.206Z,26.55
2019-02-21T11:00:27.445Z,24.87
2019-02-21T11:01:32.433Z,25.43
2019-02-21T11:02:37.131Z,25.08
2019-02-21T11:03:42.397Z,24.65
2019-02-21T11:04:54.696Z,25.37
2019-02-21T11:05:54.828Z,22.45
2019-02-21T11:07:00.141Z,23.07
2019-02-21T11:08:05.234Z,24.82
2019-02-21T11:09:14.588Z,25.02
2019-02-21T11:10:22.283Z,24.75
2019-02-21T11:11:27.267Z,25.45
2019-02-21T11:12:31.735Z,24.25
2019-02-21T11:13:37.049Z,24.12
2019-02-21T11:14:47.412Z,23.80
2019-02-21T11:15:48.754Z,23.70
2019-02-21T11:16:53.793Z,25.25
2019-02-21T11:17:58.769Z,24.77
2019-02-21T11:19:03.773Z,24.82
2019-02-21T11:20:10.891Z,24.63
2019-02-21T11:21:15.884Z,24.40
2019-02-21T11:22:20.577Z,23.52
2019-02-21T11:23:25.442Z,23.98
2019-02-21T11:24:30.239Z,25.00
2019-02-21T11:25:34.930Z,23.90
2019-02-21T11:26:39.939Z,24.70
2019-02-21T11:27:44.767Z,23.98
2019-02-21T11:28:50.003Z,23.65
2019-02-21T11:29:55.285Z,24.32
2019-02-21T11:31:00.271Z,24.80
2019-02-21T11:32:05.306Z,23.70
2019-02-21T11:33:10.105Z,24.37
2019-02-21T11:34:15.053Z,24.18
2019-02-21T11:35:20.602Z,23.77
2019-02-21T11:36:25.285Z,24.82
2019-02-21T11:37:30.533Z,25.12
2019-02-21T11:38:35.512Z,25.20
2019-02-21T11:39:41.063Z,25.00
2019-02-21T11:40:46.108Z,24.92
2019-02-21T11:41:50.896Z,24.77
2019-02-21T11:42:55.914Z,24.12
2019-02-21T11:44:00.981Z,24.67
2019-02-21T11:45:06.312Z,25.80
2019-02-21T11:46:11.031Z,24.90
2019-02-21T11:47:16.014Z,24.70
2019-02-21T11:48:20.768Z,24.55
2019-02-21T11:49:25.751Z,25.10
2019-02-21T11:50:30.756Z,24.75
2019-02-21T11:51:35.467Z,23.62
2019-02-21T11:52:40.442Z,25.48
2019-02-21T11:53:45.553Z,24.95
2019-02-21T11:54:50.348Z,24.95
2019-02-21T11:55:55.219Z,24.35
2019-02-21T11:57:00.599Z,24.75
2019-02-21T11:58:05.302Z,24.95
2019-02-21T11:59:10.855Z,25.30
2019-02-21T12:00:18.643Z,24.40
2019-02-21T12:01:23.329Z,25.25
2019-02-21T12:02:38.441Z,24.35
2019-02-21T12:03:34.456Z,23.50
2019-02-21T12:04:39.202Z,24.57
2019-02-21T12:05:44.492Z,24.23
2019-02-21T12:06:49.232Z,24.40
2019-02-21T12:07:54.193Z,22.98
2019-02-21T12:08:59.529Z,23.80
2019-02-21T12:10:04.546Z,25.15
2019-02-21T12:11:09.357Z,24.25
2019-02-21T12:12:14.567Z,23.27
2019-02-21T12:13:19.615Z,25.40
2019-02-21T12:14:24.307Z,24.32
2019-02-21T12:15:29.301Z,25.17
2019-02-21T12:16:34.599Z,23.80
2019-02-21T12:17:39.328Z,23.45
2019-02-21T12:18:44.564Z,25.17
2019-02-21T12:19:49.532Z,24.43
2019-02-21T12:20:55.067Z,23.80
2019-02-21T12:21:59.764Z,23.90
2019-02-21T12:23:04.743Z,23.50
2019-02-21T12:24:09.435Z,23.45
2019-02-21T12:25:15.716Z,23.52
2019-02-21T12:26:20.726Z,24.15
2019-02-21T12:27:25.740Z,24.82
2019-02-21T12:28:30.620Z,24.07
2019-02-21T12:29:35.603Z,24.87
2019-02-21T12:30:40.647Z,24.82
2019-02-21T12:31:45.510Z,24.30
2019-02-21T12:32:51.086Z,24.37
2019-02-21T12:33:56.634Z,23.95
2019-02-21T12:35:01.890Z,24.25
2019-02-21T12:36:07.449Z,24.07
2019-02-21T12:37:12.434Z,24.12
2019-02-21T12:38:17.181Z,21.90
2019-02-21T12:39:22.499Z,24.23
2019-02-21T12:40:27.520Z,24.25
2019-02-21T12:41:32.543Z,23.55
2019-02-21T12:42:37.847Z,22.50
2019-02-21T12:43:43.000Z,23.12
2019-02-21T12:44:47.991Z,23.10
2019-02-21T12:45:55.531Z,22.60
2019-02-21T12:47:00.580Z,21.23
2019-02-21T12:48:06.049Z,21.95
2019-02-21T12:49:11.414Z,22.58
2019-02-21T12:50:16.237Z,22.67
2019-02-21T12:51:21.278Z,21.73
2019-02-21T12:52:26.006Z,19.73
2019-02-21T12:53:31.619Z,20.08
2019-02-21T12:54:36.619Z,20.43
2019-02-21T12:55:41.628Z,20.72
2019-02-21T12:56:47.160Z,20.57
2019-02-21T12:57:52.216Z,20.85
2019-02-21T12:58:57.255Z,20.45
2019-02-21T13:00:02.599Z,20.62
2019-02-21T13:01:07.578Z,21.10
2019-02-21T13:02:12.630Z,19.37
2019-02-21T13:03:17.621Z,20.48
2019-02-21T13:04:22.966Z,19.67
2019-02-21T13:05:27.758Z,20.48
2019-02-21T13:06:33.186Z,20.37
2019-02-21T13:07:38.113Z,20.52
2019-02-21T13:08:43.144Z,20.27
2019-02-21T13:09:47.952Z,20.65
2019-02-21T13:10:53.165Z,20.75
2019-02-21T13:11:58.460Z,20.00
2019-02-21T13:13:03.793Z,19.98
2019-02-21T13:14:08.815Z,20.62
2019-02-21T13:15:14.499Z,20.50
2019-02-21T13:16:19.526Z,20.35
2019-02-21T13:17:24.787Z,20.15
2019-02-21T13:18:30.050Z,19.37
2019-02-21T13:19:35.059Z,19.70
2019-02-21T13:20:40.354Z,18.32
2019-02-21T13:21:45.376Z,19.30
2019-02-21T13:22:50.455Z,19.60
2019-02-21T13:23:55.496Z,20.00
2019-02-21T13:25:00.530Z,20.45
2019-02-21T13:26:05.532Z,20.40
2019-02-21T13:27:11.176Z,21.40
2019-02-21T13:28:16.437Z,19.60
2019-02-21T13:29:21.732Z,19.37
2019-02-21T13:30:26.790Z,18.32
2019-02-21T13:31:31.504Z,18.95
2019-02-21T13:32:37.105Z,17.95
2019-02-21T13:33:41.570Z,18.10
2019-02-21T13:34:46.569Z,18.35
2019-02-21T13:35:52.902Z,19.30
2019-02-21T13:36:58.384Z,19.62
2019-02-21T13:38:03.482Z,19.25
2019-02-21T13:39:08.986Z,18.82
2019-02-21T13:40:14.491Z,19.45
2019-02-21T13:41:19.267Z,18.60
2019-02-21T13:42:24.300Z,18.65
2019-02-21T13:43:29.935Z,19.27
2019-02-21T13:44:35.015Z,18.52
2019-02-21T13:45:40.025Z,17.87
2019-02-21T13:46:45.346Z,19.07
2019-02-21T13:47:50.096Z,18.23
2019-02-21T13:48:54.997Z,19.48
2019-02-21T13:50:01.998Z,18.70
2019-02-21T13:51:07.078Z,19.32
2019-02-21T13:52:12.475Z,20.27
2019-02-21T13:53:17.615Z,20.52
2019-02-21T13:54:22.950Z,20.00
2019-02-21T13:55:28.256Z,20.43
2019-02-21T13:56:32.788Z,20.12
2019-02-21T13:57:38.070Z,22.30
2019-02-21T13:58:43.396Z,20.45
2019-02-21T13:59:48.677Z,20.02
2019-02-21T14:00:53.145Z,21.42
2019-02-21T14:01:58.184Z,21.05
2019-02-21T14:03:02.641Z,19.95
2019-02-21T14:04:07.981Z,20.08
2019-02-21T14:05:12.842Z,19.48
2019-02-21T14:06:19.444Z,18.65
2019-02-21T14:07:24.550Z,18.80
2019-02-21T14:08:29.554Z,20.65
2019-02-21T14:09:34.876Z,19.77
2019-02-21T14:10:39.388Z,20.68
2019-02-21T14:11:44.429Z,20.80
2019-02-21T14:12:50.024Z,19.37
2019-02-21T14:13:54.772Z,19.65
2019-02-21T14:14:59.642Z,20.25